sensor_id;sensor_type;location;lat;lon;timestamp;P1;durP1;ratioP1;P2;durP2;ratioP2
35959;SDS011;22043;50.970;7.192;2023-04-30T00:01:32;19.27;;;10.77;;
35959;SDS011;22043;50.970;7.192;2023-04-30T00:03:57;18.52;;;10.15;;
35959;SDS011;22043;50.970;7.192;2023-04-30T00:06:24;16.33;;;9.98;;
35959;SDS011;22043;50.970;7.192;2023-04-30T00:08:49;14.30;;;10.05;;
35959;SDS011;22043;50.970;7.192;2023-04-30T00:11:15;17.33;;;10.10;;
35959;SDS011;22043;50.970;7.192;2023-04-30T00:13:40;18.95;;;11.07;;
35959;SDS011;22043;50.970;7.192;2023-04-30T00:16:06;16.27;;;8.82;;
35959;SDS011;22043;50.970;7.192;2023-04-30T00:18:32;14.60;;;9.48;;
35959;SDS011;22043;50.970;7.192;2023-04-30T00:20:57;15.82;;;9.98;;
35959;SDS011;22043;50.970;7.192;2023-04-30T00:23:23;16.65;;;10.35;;
35959;SDS011;22043;50.970;7.192;2023-04-30T00:25:48;20.10;;;10.57;;
35959;SDS011;22043;50.970;7.192;2023-04-30T00:28:13;15.50;;;10.52;;
35959;SDS011;22043;50.970;7.192;2023-04-30T00:30:39;17.42;;;10.82;;
35959;SDS011;22043;50.970;7.192;2023-04-30T00:33:04;16.48;;;10.65;;
35959;SDS011;22043;50.970;7.192;2023-04-30T00:35:30;17.85;;;10.73;;
35959;SDS011;22043;50.970;7.192;2023-04-30T00:37:55;17.33;;;10.70;;
35959;SDS011;22043;50.970;7.192;2023-04-30T00:40:20;17.80;;;10.98;;
35959;SDS011;22043;50.970;7.192;2023-04-30T00:42:46;17.92;;;11.30;;
35959;SDS011;22043;50.970;7.192;2023-04-30T00:45:12;19.33;;;11.35;;
35959;SDS011;22043;50.970;7.192;2023-04-30T00:47:38;22.55;;;12.85;;
35959;SDS011;22043;50.970;7.192;2023-04-30T00:50:04;24.02;;;12.70;;
35959;SDS011;22043;50.970;7.192;2023-04-30T00:52:30;19.95;;;12.57;;
35959;SDS011;22043;50.970;7.192;2023-04-30T00:54:56;21.13;;;13.32;;
35959;SDS011;22043;50.970;7.192;2023-04-30T00:57:21;19.70;;;13.35;;
35959;SDS011;22043;50.970;7.192;2023-04-30T00:59:47;21.15;;;13.32;;
35959;SDS011;22043;50.970;7.192;2023-04-30T01:02:13;20.23;;;12.82;;
35959;SDS011;22043;50.970;7.192;2023-04-30T01:04:39;19.17;;;13.23;;
35959;SDS011;22043;50.970;7.192;2023-04-30T01:07:04;22.85;;;13.90;;
35959;SDS011;22043;50.970;7.192;2023-04-30T01:09:31;23.75;;;13.45;;
35959;SDS011;22043;50.970;7.192;2023-04-30T01:11:59;19.67;;;13.10;;
35959;SDS011;22043;50.970;7.192;2023-04-30T01:14:44;21.02;;;13.43;;
35959;SDS011;22043;50.970;7.192;2023-04-30T01:20:05;19.98;;;12.88;;
35959;SDS011;22043;50.970;7.192;2023-04-30T01:22:43;19.13;;;12.30;;
35959;SDS011;22043;50.970;7.192;2023-04-30T01:25:24;23.52;;;13.82;;
35959;SDS011;22043;50.970;7.192;2023-04-30T01:30:34;20.55;;;12.45;;
35959;SDS011;22043;50.970;7.192;2023-04-30T01:33:01;18.60;;;12.63;;
35959;SDS011;22043;50.970;7.192;2023-04-30T01:41:34;22.20;;;12.75;;
35959;SDS011;22043;50.970;7.192;2023-04-30T01:44:11;17.05;;;11.35;;
35959;SDS011;22043;50.970;7.192;2023-04-30T01:46:38;17.75;;;10.48;;
35959;SDS011;22043;50.970;7.192;2023-04-30T01:51:44;13.98;;;8.45;;
35959;SDS011;22043;50.970;7.192;2023-04-30T01:54:22;20.67;;;11.75;;
35959;SDS011;22043;50.970;7.192;2023-04-30T01:57:05;21.42;;;10.05;;
35959;SDS011;22043;50.970;7.192;2023-04-30T01:59:33;18.55;;;11.18;;
35959;SDS011;22043;50.970;7.192;2023-04-30T02:02:00;21.45;;;11.32;;
35959;SDS011;22043;50.970;7.192;2023-04-30T02:04:26;18.17;;;11.27;;
35959;SDS011;22043;50.970;7.192;2023-04-30T02:06:52;19.50;;;11.13;;
35959;SDS011;22043;50.970;7.192;2023-04-30T02:09:17;18.08;;;11.02;;
35959;SDS011;22043;50.970;7.192;2023-04-30T02:11:43;22.02;;;10.25;;
35959;SDS011;22043;50.970;7.192;2023-04-30T02:14:08;18.77;;;9.95;;
35959;SDS011;22043;50.970;7.192;2023-04-30T02:16:34;20.75;;;10.13;;
35959;SDS011;22043;50.970;7.192;2023-04-30T02:18:59;14.93;;;9.88;;
35959;SDS011;22043;50.970;7.192;2023-04-30T02:21:25;18.42;;;9.82;;
35959;SDS011;22043;50.970;7.192;2023-04-30T02:23:51;16.65;;;8.40;;
35959;SDS011;22043;50.970;7.192;2023-04-30T02:26:17;16.25;;;8.18;;
35959;SDS011;22043;50.970;7.192;2023-04-30T02:28:42;15.65;;;7.55;;
35959;SDS011;22043;50.970;7.192;2023-04-30T02:31:10;16.55;;;8.25;;
35959;SDS011;22043;50.970;7.192;2023-04-30T02:33:35;14.95;;;8.20;;
35959;SDS011;22043;50.970;7.192;2023-04-30T02:36:01;15.35;;;7.22;;
35959;SDS011;22043;50.970;7.192;2023-04-30T02:38:26;12.30;;;6.30;;
35959;SDS011;22043;50.970;7.192;2023-04-30T02:40:52;11.48;;;5.63;;
35959;SDS011;22043;50.970;7.192;2023-04-30T02:43:17;11.55;;;5.22;;
35959;SDS011;22043;50.970;7.192;2023-04-30T02:45:43;12.77;;;6.65;;
35959;SDS011;22043;50.970;7.192;2023-04-30T02:48:08;9.52;;;5.13;;
35959;SDS011;22043;50.970;7.192;2023-04-30T02:50:33;9.30;;;4.80;;
35959;SDS011;22043;50.970;7.192;2023-04-30T02:52:59;11.25;;;5.40;;
35959;SDS011;22043;50.970;7.192;2023-04-30T02:55:25;10.90;;;5.72;;
35959;SDS011;22043;50.970;7.192;2023-04-30T02:57:50;10.45;;;5.55;;
35959;SDS011;22043;50.970;7.192;2023-04-30T03:00:15;12.13;;;4.95;;
35959;SDS011;22043;50.970;7.192;2023-04-30T03:02:42;11.38;;;5.38;;
35959;SDS011;22043;50.970;7.192;2023-04-30T03:05:07;11.25;;;4.70;;
35959;SDS011;22043;50.970;7.192;2023-04-30T03:07:33;11.60;;;5.80;;
35959;SDS011;22043;50.970;7.192;2023-04-30T03:09:59;11.40;;;5.80;;
35959;SDS011;22043;50.970;7.192;2023-04-30T03:12:24;9.98;;;5.30;;
35959;SDS011;22043;50.970;7.192;2023-04-30T03:14:49;13.18;;;6.00;;
35959;SDS011;22043;50.970;7.192;2023-04-30T03:17:16;10.10;;;5.22;;
35959;SDS011;22043;50.970;7.192;2023-04-30T03:19:41;11.10;;;5.22;;
35959;SDS011;22043;50.970;7.192;2023-04-30T03:22:07;10.55;;;5.10;;
35959;SDS011;22043;50.970;7.192;2023-04-30T03:24:32;10.88;;;5.57;;
35959;SDS011;22043;50.970;7.192;2023-04-30T03:26:58;10.27;;;5.78;;
35959;SDS011;22043;50.970;7.192;2023-04-30T03:29:23;11.15;;;5.53;;
35959;SDS011;22043;50.970;7.192;2023-04-30T03:31:49;12.07;;;5.70;;
35959;SDS011;22043;50.970;7.192;2023-04-30T03:34:15;9.35;;;5.22;;
35959;SDS011;22043;50.970;7.192;2023-04-30T03:36:40;8.68;;;5.32;;
35959;SDS011;22043;50.970;7.192;2023-04-30T03:39:06;9.93;;;5.25;;
35959;SDS011;22043;50.970;7.192;2023-04-30T03:41:33;12.35;;;5.50;;
35959;SDS011;22043;50.970;7.192;2023-04-30T03:43:59;9.38;;;5.55;;
35959;SDS011;22043;50.970;7.192;2023-04-30T03:46:25;10.77;;;5.18;;
35959;SDS011;22043;50.970;7.192;2023-04-30T03:48:50;8.48;;;4.57;;
35959;SDS011;22043;50.970;7.192;2023-04-30T03:51:17;12.13;;;4.82;;
35959;SDS011;22043;50.970;7.192;2023-04-30T03:53:44;11.13;;;5.50;;
35959;SDS011;22043;50.970;7.192;2023-04-30T03:56:10;10.05;;;5.45;;
35959;SDS011;22043;50.970;7.192;2023-04-30T03:58:36;9.93;;;5.47;;
35959;SDS011;22043;50.970;7.192;2023-04-30T04:01:02;10.75;;;5.05;;
35959;SDS011;22043;50.970;7.192;2023-04-30T04:03:28;7.68;;;4.50;;
35959;SDS011;22043;50.970;7.192;2023-04-30T04:05:54;9.20;;;5.28;;
35959;SDS011;22043;50.970;7.192;2023-04-30T04:08:19;9.45;;;4.57;;
35959;SDS011;22043;50.970;7.192;2023-04-30T04:10:45;8.65;;;5.45;;
35959;SDS011;22043;50.970;7.192;2023-04-30T04:13:11;10.05;;;4.82;;
35959;SDS011;22043;50.970;7.192;2023-04-30T04:15:36;10.02;;;5.35;;
35959;SDS011;22043;50.970;7.192;2023-04-30T04:18:02;10.65;;;4.85;;
35959;SDS011;22043;50.970;7.192;2023-04-30T04:20:28;10.50;;;5.07;;
35959;SDS011;22043;50.970;7.192;2023-04-30T04:22:54;10.32;;;5.47;;
35959;SDS011;22043;50.970;7.192;2023-04-30T04:25:21;12.60;;;5.90;;
35959;SDS011;22043;50.970;7.192;2023-04-30T04:27:49;11.25;;;5.28;;
35959;SDS011;22043;50.970;7.192;2023-04-30T04:30:15;10.73;;;5.68;;
35959;SDS011;22043;50.970;7.192;2023-04-30T04:32:41;10.43;;;5.30;;
35959;SDS011;22043;50.970;7.192;2023-04-30T04:35:14;10.45;;;4.85;;
35959;SDS011;22043;50.970;7.192;2023-04-30T04:37:40;8.43;;;4.75;;
35959;SDS011;22043;50.970;7.192;2023-04-30T04:40:06;9.82;;;4.80;;
35959;SDS011;22043;50.970;7.192;2023-04-30T04:42:33;12.30;;;6.13;;
35959;SDS011;22043;50.970;7.192;2023-04-30T04:44:58;10.07;;;4.80;;
35959;SDS011;22043;50.970;7.192;2023-04-30T04:47:24;9.77;;;5.03;;
35959;SDS011;22043;50.970;7.192;2023-04-30T04:49:49;10.57;;;4.88;;
35959;SDS011;22043;50.970;7.192;2023-04-30T04:52:15;11.48;;;5.53;;
35959;SDS011;22043;50.970;7.192;2023-04-30T04:54:40;10.55;;;5.25;;
35959;SDS011;22043;50.970;7.192;2023-04-30T04:57:06;10.95;;;4.80;;
35959;SDS011;22043;50.970;7.192;2023-04-30T04:59:31;9.45;;;4.80;;
35959;SDS011;22043;50.970;7.192;2023-04-30T05:01:57;10.23;;;5.18;;
35959;SDS011;22043;50.970;7.192;2023-04-30T05:04:22;10.32;;;4.95;;
35959;SDS011;22043;50.970;7.192;2023-04-30T05:06:48;12.00;;;5.63;;
35959;SDS011;22043;50.970;7.192;2023-04-30T05:09:13;9.25;;;4.78;;
35959;SDS011;22043;50.970;7.192;2023-04-30T05:11:39;10.07;;;4.90;;
35959;SDS011;22043;50.970;7.192;2023-04-30T05:14:05;10.52;;;5.55;;
35959;SDS011;22043;50.970;7.192;2023-04-30T05:16:31;9.35;;;5.18;;
35959;SDS011;22043;50.970;7.192;2023-04-30T05:18:57;10.48;;;5.30;;
35959;SDS011;22043;50.970;7.192;2023-04-30T05:21:22;9.13;;;4.35;;
35959;SDS011;22043;50.970;7.192;2023-04-30T05:23:50;10.77;;;5.05;;
35959;SDS011;22043;50.970;7.192;2023-04-30T05:26:15;9.27;;;4.80;;
35959;SDS011;22043;50.970;7.192;2023-04-30T05:28:41;10.77;;;5.63;;
35959;SDS011;22043;50.970;7.192;2023-04-30T05:31:06;10.85;;;5.00;;
35959;SDS011;22043;50.970;7.192;2023-04-30T05:33:31;8.68;;;4.72;;
35959;SDS011;22043;50.970;7.192;2023-04-30T05:35:57;12.00;;;5.20;;
35959;SDS011;22043;50.970;7.192;2023-04-30T05:38:23;12.52;;;5.10;;
35959;SDS011;22043;50.970;7.192;2023-04-30T05:40:48;8.68;;;4.97;;
35959;SDS011;22043;50.970;7.192;2023-04-30T05:43:14;12.35;;;5.35;;
35959;SDS011;22043;50.970;7.192;2023-04-30T05:45:39;8.93;;;4.40;;
35959;SDS011;22043;50.970;7.192;2023-04-30T05:48:04;10.82;;;5.72;;
35959;SDS011;22043;50.970;7.192;2023-04-30T05:50:30;10.77;;;5.57;;
35959;SDS011;22043;50.970;7.192;2023-04-30T05:52:55;11.95;;;5.55;;
35959;SDS011;22043;50.970;7.192;2023-04-30T05:55:21;9.48;;;5.10;;
35959;SDS011;22043;50.970;7.192;2023-04-30T05:57:46;15.27;;;5.65;;
35959;SDS011;22043;50.970;7.192;2023-04-30T06:00:12;9.27;;;4.88;;
35959;SDS011;22043;50.970;7.192;2023-04-30T06:02:37;9.48;;;4.63;;
35959;SDS011;22043;50.970;7.192;2023-04-30T06:05:03;9.48;;;4.68;;
35959;SDS011;22043;50.970;7.192;2023-04-30T06:07:29;10.25;;;5.80;;
35959;SDS011;22043;50.970;7.192;2023-04-30T06:09:55;11.48;;;5.05;;
35959;SDS011;22043;50.970;7.192;2023-04-30T06:12:20;10.40;;;5.20;;
35959;SDS011;22043;50.970;7.192;2023-04-30T06:14:46;9.75;;;5.22;;
35959;SDS011;22043;50.970;7.192;2023-04-30T06:17:11;11.80;;;4.90;;
35959;SDS011;22043;50.970;7.192;2023-04-30T06:19:38;9.02;;;4.53;;
35959;SDS011;22043;50.970;7.192;2023-04-30T06:22:03;12.38;;;4.90;;
35959;SDS011;22043;50.970;7.192;2023-04-30T06:24:29;8.30;;;4.53;;
35959;SDS011;22043;50.970;7.192;2023-04-30T06:26:54;10.77;;;5.65;;
35959;SDS011;22043;50.970;7.192;2023-04-30T06:29:20;8.70;;;4.45;;
35959;SDS011;22043;50.970;7.192;2023-04-30T06:31:48;8.68;;;4.18;;
35959;SDS011;22043;50.970;7.192;2023-04-30T06:34:15;7.93;;;4.43;;
35959;SDS011;22043;50.970;7.192;2023-04-30T06:36:41;9.60;;;4.80;;
35959;SDS011;22043;50.970;7.192;2023-04-30T06:39:06;10.38;;;4.40;;
35959;SDS011;22043;50.970;7.192;2023-04-30T06:41:31;9.02;;;4.20;;
35959;SDS011;22043;50.970;7.192;2023-04-30T06:43:57;10.15;;;5.00;;
35959;SDS011;22043;50.970;7.192;2023-04-30T06:46:22;7.93;;;4.03;;
35959;SDS011;22043;50.970;7.192;2023-04-30T06:48:48;8.75;;;3.85;;
35959;SDS011;22043;50.970;7.192;2023-04-30T06:51:13;9.00;;;4.43;;
35959;SDS011;22043;50.970;7.192;2023-04-30T06:53:39;6.93;;;3.50;;
35959;SDS011;22043;50.970;7.192;2023-04-30T06:56:04;12.05;;;3.72;;
35959;SDS011;22043;50.970;7.192;2023-04-30T06:58:30;8.55;;;4.28;;
35959;SDS011;22043;50.970;7.192;2023-04-30T07:00:55;8.20;;;4.68;;
35959;SDS011;22043;50.970;7.192;2023-04-30T07:03:22;7.53;;;3.95;;
35959;SDS011;22043;50.970;7.192;2023-04-30T07:05:47;8.15;;;3.85;;
35959;SDS011;22043;50.970;7.192;2023-04-30T07:08:13;10.07;;;4.85;;
35959;SDS011;22043;50.970;7.192;2023-04-30T07:10:39;8.05;;;4.18;;
35959;SDS011;22043;50.970;7.192;2023-04-30T07:13:05;9.90;;;5.15;;
35959;SDS011;22043;50.970;7.192;2023-04-30T07:15:32;8.23;;;4.00;;
35959;SDS011;22043;50.970;7.192;2023-04-30T07:17:57;8.52;;;4.30;;
35959;SDS011;22043;50.970;7.192;2023-04-30T07:20:23;8.95;;;4.22;;
35959;SDS011;22043;50.970;7.192;2023-04-30T07:22:48;6.90;;;3.45;;
35959;SDS011;22043;50.970;7.192;2023-04-30T07:25:14;8.52;;;3.97;;
35959;SDS011;22043;50.970;7.192;2023-04-30T07:27:40;12.13;;;4.13;;
35959;SDS011;22043;50.970;7.192;2023-04-30T07:30:06;7.65;;;3.38;;
35959;SDS011;22043;50.970;7.192;2023-04-30T07:32:35;10.88;;;3.97;;
35959;SDS011;22043;50.970;7.192;2023-04-30T07:35:02;7.50;;;4.07;;
35959;SDS011;22043;50.970;7.192;2023-04-30T07:37:28;8.02;;;4.15;;
35959;SDS011;22043;50.970;7.192;2023-04-30T07:39:54;7.63;;;3.92;;
35959;SDS011;22043;50.970;7.192;2023-04-30T07:42:19;7.50;;;3.75;;
35959;SDS011;22043;50.970;7.192;2023-04-30T07:44:45;7.90;;;3.60;;
35959;SDS011;22043;50.970;7.192;2023-04-30T07:47:10;5.50;;;3.10;;
35959;SDS011;22043;50.970;7.192;2023-04-30T07:49:36;8.38;;;3.88;;
35959;SDS011;22043;50.970;7.192;2023-04-30T07:52:01;6.47;;;3.03;;
35959;SDS011;22043;50.970;7.192;2023-04-30T07:54:27;4.18;;;2.28;;
35959;SDS011;22043;50.970;7.192;2023-04-30T07:56:53;5.22;;;2.60;;
35959;SDS011;22043;50.970;7.192;2023-04-30T07:59:18;6.20;;;2.30;;
35959;SDS011;22043;50.970;7.192;2023-04-30T08:01:45;4.72;;;2.25;;
35959;SDS011;22043;50.970;7.192;2023-04-30T08:04:10;5.05;;;3.17;;
35959;SDS011;22043;50.970;7.192;2023-04-30T08:06:38;4.95;;;2.60;;
35959;SDS011;22043;50.970;7.192;2023-04-30T08:09:15;4.82;;;2.65;;
35959;SDS011;22043;50.970;7.192;2023-04-30T08:12:07;3.33;;;1.83;;
35959;SDS011;22043;50.970;7.192;2023-04-30T08:15:02;4.75;;;2.03;;
35959;SDS011;22043;50.970;7.192;2023-04-30T08:18:01;3.00;;;1.55;;
35959;SDS011;22043;50.970;7.192;2023-04-30T08:20:27;4.35;;;1.63;;
35959;SDS011;22043;50.970;7.192;2023-04-30T08:22:52;2.55;;;1.27;;
35959;SDS011;22043;50.970;7.192;2023-04-30T08:25:18;3.75;;;1.70;;
35959;SDS011;22043;50.970;7.192;2023-04-30T08:27:43;2.63;;;1.48;;
35959;SDS011;22043;50.970;7.192;2023-04-30T08:30:09;2.53;;;1.38;;
35959;SDS011;22043;50.970;7.192;2023-04-30T08:32:35;3.47;;;1.23;;
35959;SDS011;22043;50.970;7.192;2023-04-30T08:35:04;1.90;;;0.57;;
35959;SDS011;22043;50.970;7.192;2023-04-30T08:37:30;0.90;;;0.60;;
35959;SDS011;22043;50.970;7.192;2023-04-30T08:39:56;1.45;;;1.05;;
35959;SDS011;22043;50.970;7.192;2023-04-30T08:42:24;0.93;;;0.65;;
35959;SDS011;22043;50.970;7.192;2023-04-30T08:44:50;1.40;;;0.68;;
35959;SDS011;22043;50.970;7.192;2023-04-30T08:47:16;3.17;;;1.10;;
35959;SDS011;22043;50.970;7.192;2023-04-30T08:49:42;2.20;;;0.68;;
35959;SDS011;22043;50.970;7.192;2023-04-30T08:52:09;1.87;;;0.80;;
35959;SDS011;22043;50.970;7.192;2023-04-30T08:54:35;2.10;;;0.80;;
35959;SDS011;22043;50.970;7.192;2023-04-30T08:57:01;1.20;;;0.80;;
35959;SDS011;22043;50.970;7.192;2023-04-30T08:59:27;1.45;;;0.80;;
35959;SDS011;22043;50.970;7.192;2023-04-30T09:01:53;2.65;;;0.90;;
35959;SDS011;22043;50.970;7.192;2023-04-30T09:04:18;1.00;;;0.60;;
35959;SDS011;22043;50.970;7.192;2023-04-30T09:06:44;0.93;;;0.50;;
35959;SDS011;22043;50.970;7.192;2023-04-30T09:09:11;1.55;;;0.82;;
35959;SDS011;22043;50.970;7.192;2023-04-30T09:11:38;2.08;;;0.95;;
35959;SDS011;22043;50.970;7.192;2023-04-30T09:14:03;1.88;;;0.80;;
35959;SDS011;22043;50.970;7.192;2023-04-30T09:16:30;1.63;;;0.93;;
35959;SDS011;22043;50.970;7.192;2023-04-30T09:19:19;1.58;;;0.90;;
35959;SDS011;22043;50.970;7.192;2023-04-30T09:24:12;2.05;;;1.00;;
35959;SDS011;22043;50.970;7.192;2023-04-30T09:26:38;1.98;;;0.98;;
35959;SDS011;22043;50.970;7.192;2023-04-30T09:29:03;1.48;;;0.80;;
35959;SDS011;22043;50.970;7.192;2023-04-30T09:31:36;1.33;;;0.60;;
35959;SDS011;22043;50.970;7.192;2023-04-30T09:34:02;1.85;;;0.75;;
35959;SDS011;22043;50.970;7.192;2023-04-30T09:36:28;1.50;;;1.00;;
35959;SDS011;22043;50.970;7.192;2023-04-30T09:38:55;1.30;;;0.70;;
35959;SDS011;22043;50.970;7.192;2023-04-30T09:41:28;1.42;;;0.68;;
35959;SDS011;22043;50.970;7.192;2023-04-30T09:43:55;2.55;;;0.85;;
35959;SDS011;22043;50.970;7.192;2023-04-30T09:46:21;1.85;;;1.00;;
35959;SDS011;22043;50.970;7.192;2023-04-30T09:48:55;2.75;;;1.17;;
35959;SDS011;22043;50.970;7.192;2023-04-30T09:51:22;1.90;;;0.93;;
35959;SDS011;22043;50.970;7.192;2023-04-30T09:53:48;1.90;;;0.82;;
35959;SDS011;22043;50.970;7.192;2023-04-30T09:56:15;2.25;;;0.82;;
35959;SDS011;22043;50.970;7.192;2023-04-30T09:58:49;1.08;;;0.55;;
35959;SDS011;22043;50.970;7.192;2023-04-30T10:01:15;1.35;;;0.68;;
35959;SDS011;22043;50.970;7.192;2023-04-30T10:03:42;2.15;;;0.93;;
35959;SDS011;22043;50.970;7.192;2023-04-30T10:06:08;4.38;;;1.10;;
35959;SDS011;22043;50.970;7.192;2023-04-30T10:08:50;1.25;;;0.80;;
35959;SDS011;22043;50.970;7.192;2023-04-30T10:11:18;2.45;;;0.60;;
35959;SDS011;22043;50.970;7.192;2023-04-30T10:18:58;1.02;;;0.45;;
35959;SDS011;22043;50.970;7.192;2023-04-30T10:21:28;0.68;;;0.35;;
35959;SDS011;22043;50.970;7.192;2023-04-30T10:23:54;1.45;;;0.30;;
35959;SDS011;22043;50.970;7.192;2023-04-30T10:26:20;1.17;;;0.30;;
35959;SDS011;22043;50.970;7.192;2023-04-30T10:28:47;0.45;;;0.30;;
35959;SDS011;22043;50.970;7.192;2023-04-30T10:31:14;1.13;;;0.30;;
35959;SDS011;22043;50.970;7.192;2023-04-30T10:36:13;0.32;;;0.28;;
35959;SDS011;22043;50.970;7.192;2023-04-30T10:38:47;0.73;;;0.40;;
35959;SDS011;22043;50.970;7.192;2023-04-30T10:41:13;0.40;;;0.20;;
35959;SDS011;22043;50.970;7.192;2023-04-30T10:43:39;0.32;;;0.20;;
35959;SDS011;22043;50.970;7.192;2023-04-30T10:46:05;0.20;;;0.15;;
35959;SDS011;22043;50.970;7.192;2023-04-30T10:48:33;0.15;;;0.10;;
35959;SDS011;22043;50.970;7.192;2023-04-30T10:51:00;0.40;;;0.20;;
35959;SDS011;22043;50.970;7.192;2023-04-30T10:53:25;0.60;;;0.30;;
35959;SDS011;22043;50.970;7.192;2023-04-30T10:55:59;0.20;;;0.20;;
35959;SDS011;22043;50.970;7.192;2023-04-30T10:58:31;0.70;;;0.30;;
35959;SDS011;22043;50.970;7.192;2023-04-30T11:03:35;1.02;;;0.20;;
35959;SDS011;22043;50.970;7.192;2023-04-30T11:06:11;0.88;;;0.40;;
35959;SDS011;22043;50.970;7.192;2023-04-30T11:08:39;0.40;;;0.30;;
35959;SDS011;22043;50.970;7.192;2023-04-30T11:11:08;0.68;;;0.30;;
35959;SDS011;22043;50.970;7.192;2023-04-30T11:13:43;0.63;;;0.30;;
35959;SDS011;22043;50.970;7.192;2023-04-30T11:16:09;0.52;;;0.30;;
35959;SDS011;22043;50.970;7.192;2023-04-30T11:18:44;0.68;;;0.30;;
35959;SDS011;22043;50.970;7.192;2023-04-30T11:21:11;0.50;;;0.32;;
35959;SDS011;22043;50.970;7.192;2023-04-30T11:23:39;0.85;;;0.43;;
35959;SDS011;22043;50.970;7.192;2023-04-30T11:26:07;0.70;;;0.45;;
35959;SDS011;22043;50.970;7.192;2023-04-30T11:28:33;0.40;;;0.28;;
35959;SDS011;22043;50.970;7.192;2023-04-30T11:31:01;0.80;;;0.35;;
35959;SDS011;22043;50.970;7.192;2023-04-30T11:33:27;0.75;;;0.30;;
35959;SDS011;22043;50.970;7.192;2023-04-30T11:35:54;0.20;;;0.20;;
35959;SDS011;22043;50.970;7.192;2023-04-30T11:38:24;0.10;;;0.10;;
35959;SDS011;22043;50.970;7.192;2023-04-30T11:40:51;1.15;;;0.30;;
35959;SDS011;22043;50.970;7.192;2023-04-30T11:43:24;1.80;;;0.53;;
35959;SDS011;22043;50.970;7.192;2023-04-30T11:46:10;1.13;;;0.20;;
35959;SDS011;22043;50.970;7.192;2023-04-30T11:48:38;0.15;;;0.15;;
35959;SDS011;22043;50.970;7.192;2023-04-30T11:51:18;0.40;;;0.20;;
35959;SDS011;22043;50.970;7.192;2023-04-30T11:53:51;0.32;;;0.22;;
35959;SDS011;22043;50.970;7.192;2023-04-30T11:56:17;0.20;;;0.20;;
35959;SDS011;22043;50.970;7.192;2023-04-30T11:58:45;0.37;;;0.27;;
35959;SDS011;22043;50.970;7.192;2023-04-30T12:01:11;0.98;;;0.32;;
35959;SDS011;22043;50.970;7.192;2023-04-30T12:03:43;0.40;;;0.20;;
35959;SDS011;22043;50.970;7.192;2023-04-30T12:06:23;0.20;;;0.13;;
35959;SDS011;22043;50.970;7.192;2023-04-30T12:08:53;0.20;;;0.20;;
35959;SDS011;22043;50.970;7.192;2023-04-30T12:11:27;0.45;;;0.20;;
35959;SDS011;22043;50.970;7.192;2023-04-30T12:14:04;0.40;;;0.30;;
35959;SDS011;22043;50.970;7.192;2023-04-30T12:16:42;0.45;;;0.25;;
35959;SDS011;22043;50.970;7.192;2023-04-30T12:19:24;0.20;;;0.10;;
35959;SDS011;22043;50.970;7.192;2023-04-30T12:21:49;0.30;;;0.20;;
35959;SDS011;22043;50.970;7.192;2023-04-30T12:24:17;0.30;;;0.20;;
35959;SDS011;22043;50.970;7.192;2023-04-30T12:29:18;0.70;;;0.20;;
35959;SDS011;22043;50.970;7.192;2023-04-30T12:31:43;0.47;;;0.32;;
35959;SDS011;22043;50.970;7.192;2023-04-30T12:34:13;0.20;;;0.20;;
35959;SDS011;22043;50.970;7.192;2023-04-30T12:36:39;0.45;;;0.20;;
35959;SDS011;22043;50.970;7.192;2023-04-30T12:39:09;0.45;;;0.25;;
35959;SDS011;22043;50.970;7.192;2023-04-30T12:41:46;1.17;;;0.20;;
35959;SDS011;22043;50.970;7.192;2023-04-30T12:44:14;0.30;;;0.30;;
35959;SDS011;22043;50.970;7.192;2023-04-30T12:46:49;0.63;;;0.20;;
35959;SDS011;22043;50.970;7.192;2023-04-30T12:49:28;0.47;;;0.28;;
35959;SDS011;22043;50.970;7.192;2023-04-30T12:52:10;0.20;;;0.10;;
35959;SDS011;22043;50.970;7.192;2023-04-30T12:54:37;0.30;;;0.20;;
35959;SDS011;22043;50.970;7.192;2023-04-30T12:57:10;0.20;;;0.20;;
35959;SDS011;22043;50.970;7.192;2023-04-30T12:59:54;0.65;;;0.40;;
35959;SDS011;22043;50.970;7.192;2023-04-30T13:02:24;1.10;;;0.30;;
35959;SDS011;22043;50.970;7.192;2023-04-30T13:04:52;0.65;;;0.30;;
35959;SDS011;22043;50.970;7.192;2023-04-30T13:07:18;0.22;;;0.10;;
35959;SDS011;22043;50.970;7.192;2023-04-30T13:09:44;0.30;;;0.20;;
35959;SDS011;22043;50.970;7.192;2023-04-30T13:12:10;0.73;;;0.47;;
35959;SDS011;22043;50.970;7.192;2023-04-30T13:14:35;0.68;;;0.30;;
35959;SDS011;22043;50.970;7.192;2023-04-30T13:17:00;0.30;;;0.20;;
35959;SDS011;22043;50.970;7.192;2023-04-30T13:19:31;0.43;;;0.28;;
35959;SDS011;22043;50.970;7.192;2023-04-30T13:21:57;0.75;;;0.22;;
35959;SDS011;22043;50.970;7.192;2023-04-30T13:24:23;0.38;;;0.10;;
35959;SDS011;22043;50.970;7.192;2023-04-30T13:26:48;0.40;;;0.17;;
35959;SDS011;22043;50.970;7.192;2023-04-30T13:29:14;3.85;;;1.35;;
35959;SDS011;22043;50.970;7.192;2023-04-30T13:31:40;0.17;;;0.13;;
35959;SDS011;22043;50.970;7.192;2023-04-30T13:34:07;0.82;;;0.30;;
35959;SDS011;22043;50.970;7.192;2023-04-30T13:36:33;0.43;;;0.25;;
35959;SDS011;22043;50.970;7.192;2023-04-30T13:39:00;0.23;;;0.20;;
35959;SDS011;22043;50.970;7.192;2023-04-30T13:41:25;0.25;;;0.20;;
35959;SDS011;22043;50.970;7.192;2023-04-30T13:43:51;0.20;;;0.20;;
35959;SDS011;22043;50.970;7.192;2023-04-30T13:46:17;1.23;;;0.63;;
35959;SDS011;22043;50.970;7.192;2023-04-30T13:48:42;0.55;;;0.25;;
35959;SDS011;22043;50.970;7.192;2023-04-30T13:51:07;0.40;;;0.22;;
35959;SDS011;22043;50.970;7.192;2023-04-30T13:53:33;0.30;;;0.22;;
35959;SDS011;22043;50.970;7.192;2023-04-30T13:56:00;0.60;;;0.30;;
35959;SDS011;22043;50.970;7.192;2023-04-30T13:58:27;0.40;;;0.22;;
35959;SDS011;22043;50.970;7.192;2023-04-30T14:00:53;0.60;;;0.30;;
35959;SDS011;22043;50.970;7.192;2023-04-30T14:03:18;0.40;;;0.10;;
35959;SDS011;22043;50.970;7.192;2023-04-30T14:05:44;0.60;;;0.30;;
35959;SDS011;22043;50.970;7.192;2023-04-30T14:08:10;0.50;;;0.22;;
35959;SDS011;22043;50.970;7.192;2023-04-30T14:10:36;0.17;;;0.17;;
35959;SDS011;22043;50.970;7.192;2023-04-30T14:13:02;0.17;;;0.17;;
35959;SDS011;22043;50.970;7.192;2023-04-30T14:15:28;0.40;;;0.20;;
35959;SDS011;22043;50.970;7.192;2023-04-30T14:17:56;0.35;;;0.17;;
35959;SDS011;22043;50.970;7.192;2023-04-30T14:20:22;0.35;;;0.20;;
35959;SDS011;22043;50.970;7.192;2023-04-30T14:22:47;0.75;;;0.43;;
35959;SDS011;22043;50.970;7.192;2023-04-30T14:25:13;0.10;;;0.10;;
35959;SDS011;22043;50.970;7.192;2023-04-30T14:27:39;0.57;;;0.38;;
35959;SDS011;22043;50.970;7.192;2023-04-30T14:30:05;0.85;;;0.30;;
35959;SDS011;22043;50.970;7.192;2023-04-30T14:32:31;0.33;;;0.20;;
35959;SDS011;22043;50.970;7.192;2023-04-30T14:34:57;0.20;;;0.20;;
35959;SDS011;22043;50.970;7.192;2023-04-30T14:37:23;0.20;;;0.10;;
35959;SDS011;22043;50.970;7.192;2023-04-30T14:39:49;0.25;;;0.10;;
35959;SDS011;22043;50.970;7.192;2023-04-30T14:42:14;0.28;;;0.20;;
35959;SDS011;22043;50.970;7.192;2023-04-30T14:44:40;1.55;;;0.30;;
35959;SDS011;22043;50.970;7.192;2023-04-30T14:47:06;0.68;;;0.20;;
35959;SDS011;22043;50.970;7.192;2023-04-30T14:49:31;1.10;;;0.38;;
35959;SDS011;22043;50.970;7.192;2023-04-30T14:51:57;5.47;;;0.35;;
35959;SDS011;22043;50.970;7.192;2023-04-30T14:54:22;1.25;;;0.45;;
35959;SDS011;22043;50.970;7.192;2023-04-30T14:56:48;0.57;;;0.38;;
35959;SDS011;22043;50.970;7.192;2023-04-30T14:59:13;0.47;;;0.30;;
35959;SDS011;22043;50.970;7.192;2023-04-30T15:01:39;0.60;;;0.20;;
35959;SDS011;22043;50.970;7.192;2023-04-30T15:04:06;0.10;;;0.10;;
35959;SDS011;22043;50.970;7.192;2023-04-30T15:06:32;1.48;;;0.75;;
35959;SDS011;22043;50.970;7.192;2023-04-30T15:08:57;0.70;;;0.47;;
35959;SDS011;22043;50.970;7.192;2023-04-30T15:11:23;0.55;;;0.30;;